createdAt,value
2022-09-05T00:01:55.932Z,100.00
2022-09-05T00:04:38.879Z,100.00
2022-09-05T00:07:38.816Z,100.00
2022-09-05T00:11:08.574Z,100.00
2022-09-05T00:14:03.315Z,100.00
2022-09-05T00:16:55.470Z,100.00
2022-09-05T00:24:20.672Z,100.00
2022-09-05T00:24:33.060Z,100.00
2022-09-05T00:26:18.232Z,100.00
2022-09-05T00:31:07.809Z,100.00
2022-09-05T00:32:58.574Z,100.00
2022-09-05T00:35:41.094Z,100.00
2022-09-05T00:38:27.522Z,100.00
2022-09-05T00:41:09.873Z,100.00
2022-09-05T00:43:50.073Z,100.00
2022-09-05T00:46:38.662Z,100.00
2022-09-05T00:49:30.817Z,100.00
2022-09-05T00:52:13.098Z,100.00
2022-09-05T00:55:07.641Z,100.00
2022-09-05T00:58:11.178Z,100.00
2022-09-05T01:00:45.448Z,100.00
2022-09-05T01:03:34.705Z,100.00
2022-09-05T01:06:33.061Z,100.00
2022-09-05T01:09:26.236Z,100.00
2022-09-05T01:12:05.472Z,100.00
2022-09-05T01:15:13.489Z,100.00
2022-09-05T01:18:08.089Z,100.00
2022-09-05T01:21:19.893Z,100.00
2022-09-05T01:24:17.358Z,100.00
2022-09-05T01:28:08.383Z,100.00
2022-09-05T01:31:15.327Z,100.00
2022-09-05T01:34:03.487Z,100.00
2022-09-05T01:37:32.751Z,100.00
2022-09-05T01:40:22.557Z,100.00
2022-09-05T01:43:04.145Z,100.00
2022-09-05T01:45:54.307Z,100.00
2022-09-05T01:48:24.112Z,100.00
2022-09-05T01:51:34.799Z,100.00
2022-09-05T01:54:26.257Z,100.00
2022-09-05T01:57:19.636Z,100.00
2022-09-05T02:00:12.509Z,100.00
2022-09-05T02:03:35.309Z,100.00
2022-09-05T02:06:33.877Z,100.00
2022-09-05T02:09:43.029Z,100.00
2022-09-05T02:12:15.725Z,100.00
2022-09-05T02:14:51.501Z,100.00
2022-09-05T02:17:50.823Z,100.00
2022-09-05T02:20:34.698Z,100.00
2022-09-05T02:23:37.545Z,100.00
2022-09-05T02:26:29.950Z,100.00
2022-09-05T02:29:07.184Z,100.00
2022-09-05T02:31:43.677Z,100.00
2022-09-05T02:34:38.194Z,100.00
2022-09-05T02:38:58.101Z,100.00
2022-09-05T02:45:13.250Z,100.00
2022-09-05T02:45:15.182Z,100.00
2022-09-05T02:47:42.326Z,100.00
2022-09-05T02:55:30.326Z,100.00
2022-09-05T02:57:40.444Z,100.00
2022-09-05T02:57:43.479Z,100.00
2022-09-05T03:00:05.793Z,100.00
2022-09-05T03:03:35.044Z,100.00
2022-09-05T03:06:43.470Z,100.00
2022-09-05T03:09:26.995Z,100.00
2022-09-05T03:12:39.865Z,100.00
2022-09-05T03:15:34.622Z,100.00
2022-09-05T03:18:20.273Z,100.00
2022-09-05T03:21:29.293Z,100.00
2022-09-05T03:24:17.538Z,100.00
2022-09-05T03:27:34.108Z,100.00
2022-09-05T03:30:08.869Z,100.00
2022-09-05T03:33:15.369Z,100.00
2022-09-05T03:36:22.688Z,100.00
2022-09-05T03:39:27.640Z,100.00
2022-09-05T03:42:42.686Z,100.00
2022-09-05T03:45:50.148Z,100.00
2022-09-05T03:48:44.255Z,100.00
2022-09-05T03:57:11.853Z,100.00
2022-09-05T03:57:17.818Z,100.00
2022-09-05T03:58:56.769Z,100.00
2022-09-05T04:02:29.082Z,100.00
2022-09-05T04:08:19.246Z,100.00
2022-09-05T04:08:24.609Z,100.00
2022-09-05T04:11:00.314Z,100.00
2022-09-05T04:13:39.159Z,100.00
2022-09-05T04:16:19.402Z,100.00
2022-09-05T04:18:56.283Z,100.00
2022-09-05T04:21:28.126Z,100.00
2022-09-05T04:24:09.740Z,100.00
2022-09-05T04:26:50.141Z,100.00
2022-09-05T04:29:39.007Z,100.00
2022-09-05T04:32:44.323Z,100.00
2022-09-05T04:35:32.182Z,100.00
2022-09-05T04:38:12.332Z,100.00
2022-09-05T04:41:11.966Z,100.00
2022-09-05T04:44:10.790Z,100.00
2022-09-05T04:46:53.739Z,100.00
2022-09-05T04:49:42.765Z,100.00
2022-09-05T04:52:51.930Z,100.00
2022-09-05T04:55:38.349Z,100.00
2022-09-05T04:58:49.404Z,100.00
2022-09-05T05:06:03.276Z,100.00
2022-09-05T05:06:20.305Z,100.00
2022-09-05T05:07:51.795Z,100.00
2022-09-05T05:14:36.682Z,100.00
2022-09-05T05:18:01.552Z,100.00
2022-09-05T05:18:14.372Z,100.00
2022-09-05T05:19:48.939Z,100.00
2022-09-05T05:22:46.910Z,100.00
2022-09-05T05:25:14.470Z,100.00
2022-09-05T05:27:59.846Z,100.00
2022-09-05T05:30:32.988Z,100.00
2022-09-05T05:33:19.174Z,100.00
2022-09-05T05:35:50.495Z,100.00
2022-09-05T05:38:43.055Z,100.00
2022-09-05T05:41:37.713Z,100.00
2022-09-05T05:44:19.328Z,100.00
2022-09-05T05:47:09.904Z,100.00
2022-09-05T05:49:46.588Z,100.00
2022-09-05T05:52:41.168Z,100.00
2022-09-05T05:55:52.688Z,100.00
2022-09-05T05:58:51.223Z,100.00
2022-09-05T06:01:42.567Z,100.00
2022-09-05T06:05:04.047Z,100.00
2022-09-05T06:10:39.043Z,100.00
2022-09-05T06:14:58.126Z,100.00
2022-09-05T06:15:08.911Z,100.00
2022-09-05T06:17:28.440Z,100.00
2022-09-05T06:22:06.238Z,100.00
2022-09-05T06:24:13.904Z,100.00
2022-09-05T06:27:21.053Z,100.00
2022-09-05T06:29:55.655Z,100.00
2022-09-05T06:32:53.899Z,100.00
2022-09-05T06:36:04.648Z,100.00
2022-09-05T06:38:57.622Z,100.00
2022-09-05T06:42:42.673Z,100.00
2022-09-05T06:45:36.509Z,100.00
2022-09-05T06:48:45.815Z,100.00
2022-09-05T06:51:49.832Z,100.00
2022-09-05T06:55:15.144Z,100.00
2022-09-05T06:58:17.520Z,100.00
2022-09-05T07:00:53.175Z,100.00
2022-09-05T07:03:28.703Z,100.00
2022-09-05T07:06:44.296Z,100.00
2022-09-05T07:09:57.386Z,100.00
2022-09-05T07:12:50.765Z,100.00
2022-09-05T07:16:06.011Z,100.00
2022-09-05T07:18:43.621Z,100.00
2022-09-05T07:21:26.232Z,100.00
2022-09-05T07:24:10.133Z,100.00
2022-09-05T07:26:53.602Z,100.00
2022-09-05T07:29:40.932Z,100.00
2022-09-05T07:32:31.870Z,100.00
2022-09-05T07:35:04.435Z,100.00
2022-09-05T07:37:41.747Z,100.00
2022-09-05T07:40:24.830Z,100.00
2022-09-05T07:43:19.221Z,100.00
2022-09-05T07:46:12.589Z,100.00
2022-09-05T07:48:53.454Z,100.00
2022-09-05T07:56:46.406Z,100.00
2022-09-05T07:57:05.035Z,100.00
2022-09-05T07:57:32.466Z,100.00
2022-09-05T08:00:29.680Z,100.00
2022-09-05T08:03:12.556Z,100.00
2022-09-05T08:05:50.388Z,100.00
2022-09-05T08:08:28.274Z,100.00
2022-09-05T08:11:22.663Z,100.00
2022-09-05T08:14:40.441Z,100.00
2022-09-05T08:16:53.662Z,100.00
2022-09-05T08:19:38.803Z,100.00
2022-09-05T08:22:11.496Z,100.00
2022-09-05T08:24:49.381Z,100.00
2022-09-05T08:27:20.926Z,100.00
2022-09-05T08:30:26.475Z,100.00
2022-09-05T08:33:11.894Z,100.00
2022-09-05T08:36:00.804Z,100.00
2022-09-05T08:38:37.409Z,99.08
2022-09-05T08:41:15.552Z,98.11
2022-09-05T08:46:36.064Z,95.26
2022-09-05T08:47:44.996Z,94.38
2022-09-05T08:50:55.055Z,92.83
2022-09-05T08:53:46.653Z,87.63
2022-09-05T08:56:21.333Z,84.21
2022-09-05T08:59:32.128Z,83.59
2022-09-05T09:02:46.460Z,79.67
2022-09-05T09:06:14.563Z,78.18
2022-09-05T09:09:10.703Z,76.64
2022-09-05T09:12:23.191Z,70.88
2022-09-05T09:15:00.847Z,68.33
2022-09-05T09:17:46.787Z,68.52
2022-09-05T09:20:52.939Z,65.25
2022-09-05T09:23:40.582Z,59.21
2022-09-05T09:26:28.234Z,60.20
2022-09-05T09:29:08.259Z,60.58
2022-09-05T09:32:14.309Z,60.47
2022-09-05T09:35:20.115Z,57.59
2022-09-05T09:38:51.765Z,54.26
2022-09-05T09:41:45.232Z,49.99
2022-09-05T09:45:01.508Z,48.98
2022-09-05T09:48:13.039Z,48.73
2022-09-05T09:51:14.202Z,47.65
2022-09-05T09:54:16.423Z,45.56
2022-09-05T09:57:07.935Z,46.67
2022-09-05T10:00:04.188Z,45.24
2022-09-05T10:05:56.018Z,45.34
2022-09-05T10:10:51.890Z,42.94
2022-09-05T10:10:54.447Z,43.44
2022-09-05T10:12:40.632Z,42.60
2022-09-05T10:15:31.526Z,44.40
2022-09-05T10:18:29.173Z,43.21
2022-09-05T10:21:16.138Z,41.27
2022-09-05T10:24:21.883Z,44.29
2022-09-05T10:27:00.976Z,44.86
2022-09-05T10:29:58.805Z,43.42
2022-09-05T10:35:09.843Z,42.13
2022-09-05T10:35:43.529Z,40.99
2022-09-05T10:38:16.240Z,40.72
2022-09-05T10:41:20.447Z,39.69
2022-09-05T10:43:53.795Z,37.45
2022-09-05T10:47:08.298Z,39.33
2022-09-05T10:49:48.101Z,38.26
2022-09-05T10:52:31.959Z,37.91
2022-09-05T10:55:17.370Z,38.90
2022-09-05T10:57:54.619Z,36.72
2022-09-05T11:02:24.440Z,37.46
2022-09-05T11:03:47.743Z,36.92
2022-09-05T11:06:20.914Z,37.05
2022-09-05T11:09:26.549Z,36.68
2022-09-05T11:12:27.293Z,35.00
2022-09-05T11:15:02.608Z,36.01
2022-09-05T11:17:46.736Z,36.32
2022-09-05T11:20:38.721Z,35.57
2022-09-05T11:23:38.811Z,36.68
2022-09-05T11:26:18.521Z,36.73
2022-09-05T11:29:00.808Z,36.48
2022-09-05T11:34:28.454Z,36.78
2022-09-05T11:39:59.039Z,37.85
2022-09-05T11:40:04.609Z,40.94
2022-09-05T11:41:09.794Z,41.96
2022-09-05T11:44:24.571Z,43.65
2022-09-05T11:47:43.641Z,45.17
2022-09-05T11:50:48.934Z,45.71
2022-09-05T11:53:25.261Z,46.42
2022-09-05T11:56:09.162Z,48.28
2022-09-05T11:59:05.330Z,47.61
2022-09-05T12:01:57.000Z,48.50
2022-09-05T12:07:57.429Z,51.68
2022-09-05T12:10:47.116Z,50.40
2022-09-05T12:13:35.210Z,50.99
2022-09-05T12:16:27.960Z,51.73
2022-09-05T12:19:19.679Z,54.16
2022-09-05T12:22:09.044Z,54.17
2022-09-05T12:25:25.733Z,55.22
2022-09-05T12:27:52.510Z,56.27
2022-09-05T12:30:53.095Z,56.18
2022-09-05T12:36:01.834Z,57.05
2022-09-05T12:40:15.696Z,57.36
2022-09-05T12:41:39.146Z,58.07
2022-09-05T12:41:40.880Z,51.09
2022-09-05T12:43:49.688Z,58.36
2022-09-05T12:45:47.607Z,56.35
2022-09-05T12:48:39.849Z,56.26
2022-09-05T12:51:45.303Z,56.94
2022-09-05T12:54:24.474Z,56.65
2022-09-05T13:01:25.765Z,57.05
2022-09-05T13:03:13.927Z,56.06
2022-09-05T13:03:29.870Z,55.56
2022-09-05T13:06:19.405Z,56.94
2022-09-05T13:09:21.542Z,56.44
2022-09-05T13:14:56.207Z,56.04
2022-09-05T13:15:20.120Z,55.69
2022-09-05T13:18:11.588Z,57.44
2022-09-05T13:20:51.492Z,57.06
2022-09-05T13:23:53.252Z,61.33
2022-09-05T13:26:36.225Z,63.43
2022-09-05T13:29:17.878Z,64.10
2022-09-05T13:38:03.552Z,63.75
2022-09-05T13:38:15.039Z,63.51
2022-09-05T13:38:16.166Z,63.13
2022-09-05T13:40:58.216Z,62.44
2022-09-05T13:43:32.201Z,62.38
2022-09-05T13:46:11.102Z,63.80
2022-09-05T13:52:38.013Z,61.23
2022-09-05T13:55:14.016Z,62.97
2022-09-05T13:58:07.375Z,62.68
2022-09-05T14:00:40.267Z,64.09
2022-09-05T14:03:31.795Z,64.78
2022-09-05T14:07:43.973Z,63.77
2022-09-05T14:10:28.587Z,64.94
2022-09-05T14:13:19.738Z,64.59
2022-09-05T14:15:59.959Z,65.28
2022-09-05T14:18:54.549Z,65.70
2022-09-05T14:21:26.888Z,64.02
2022-09-05T14:23:58.748Z,63.79
2022-09-05T14:26:51.234Z,65.09
2022-09-05T14:29:29.039Z,64.46
2022-09-05T14:37:37.071Z,64.83
2022-09-05T14:37:53.461Z,63.95
2022-09-05T14:39:25.524Z,65.24
2022-09-05T14:42:07.380Z,65.05
2022-09-05T14:45:23.000Z,64.97
2022-09-05T14:48:13.271Z,63.88
2022-09-05T14:50:49.414Z,62.89
2022-09-05T14:57:48.519Z,63.53
2022-09-05T15:02:44.276Z,64.57
2022-09-05T15:02:53.942Z,64.01
2022-09-05T15:05:41.013Z,66.14
2022-09-05T15:08:42.561Z,62.81
2022-09-05T15:12:24.408Z,64.05
2022-09-05T15:14:08.898Z,64.14
2022-09-05T15:16:45.759Z,64.74
2022-09-05T15:20:07.306Z,65.45
2022-09-05T15:22:47.903Z,65.98
2022-09-05T15:25:25.141Z,67.22
2022-09-05T15:27:53.613Z,69.61
2022-09-05T15:30:35.802Z,68.10
2022-09-05T15:33:28.981Z,69.45
2022-09-05T15:35:58.643Z,69.53
2022-09-05T15:38:37.908Z,70.21
2022-09-05T15:41:31.739Z,70.72
2022-09-05T15:44:09.554Z,71.43
2022-09-05T15:46:51.404Z,71.60
2022-09-05T15:49:37.312Z,71.46
2022-09-05T15:52:17.834Z,72.21
2022-09-05T15:55:10.772Z,73.79
2022-09-05T15:57:46.711Z,74.05
2022-09-05T16:00:51.254Z,73.57
2022-09-05T16:05:17.891Z,74.29
2022-09-05T16:10:33.647Z,75.25
2022-09-05T16:10:34.103Z,77.36
2022-09-05T16:12:27.743Z,78.45
2022-09-05T16:15:30.045Z,80.46
2022-09-05T16:23:13.075Z,81.87
2022-09-05T16:23:28.978Z,83.33
2022-09-05T16:24:18.561Z,84.13
2022-09-05T16:27:06.241Z,82.93
2022-09-05T16:29:42.172Z,83.48
2022-09-05T16:32:26.087Z,85.47
2022-09-05T16:35:18.232Z,86.66
2022-09-05T16:38:12.944Z,88.48
2022-09-05T16:40:53.961Z,89.13
2022-09-05T16:43:34.448Z,89.67
2022-09-05T16:46:34.029Z,90.61
2022-09-05T16:49:38.959Z,90.57
2022-09-05T16:52:17.782Z,90.58
2022-09-05T16:54:53.923Z,90.78
2022-09-05T16:57:30.304Z,91.50
2022-09-05T16:59:57.915Z,92.35
2022-09-05T17:02:44.247Z,94.16
2022-09-05T17:05:32.407Z,96.23
2022-09-05T17:08:29.110Z,97.64
2022-09-05T17:11:13.846Z,99.68
2022-09-05T17:14:10.763Z,100.00
2022-09-05T17:17:23.485Z,100.00
2022-09-05T17:20:06.750Z,100.00
2022-09-05T17:26:26.395Z,100.00
2022-09-05T17:29:33.946Z,100.00
2022-09-05T17:29:50.487Z,100.00
2022-09-05T17:32:04.458Z,100.00
2022-09-05T17:35:17.109Z,100.00
2022-09-05T17:38:28.084Z,100.00
2022-09-05T17:41:11.960Z,100.00
2022-09-05T17:43:41.016Z,100.00
2022-09-05T17:46:25.599Z,100.00
2022-09-05T17:49:17.949Z,100.00
2022-09-05T17:51:50.925Z,100.00
2022-09-05T17:54:50.075Z,100.00
2022-09-05T17:57:29.555Z,100.00
2022-09-05T18:00:07.026Z,100.00
2022-09-05T18:02:57.018Z,100.00
2022-09-05T18:06:09.791Z,100.00
2022-09-05T18:08:45.703Z,100.00
2022-09-05T18:11:27.423Z,100.00
2022-09-05T18:14:24.486Z,100.00
2022-09-05T18:17:36.482Z,100.00
2022-09-05T18:19:45.959Z,100.00
2022-09-05T18:22:39.500Z,100.00
2022-09-05T18:25:28.177Z,100.00
2022-09-05T18:28:12.818Z,100.00
2022-09-05T18:30:40.127Z,100.00
2022-09-05T18:33:33.298Z,100.00
2022-09-05T18:35:59.549Z,100.00
2022-09-05T18:38:51.574Z,100.00
2022-09-05T18:41:22.119Z,100.00
2022-09-05T18:44:12.196Z,100.00
2022-09-05T18:46:53.292Z,100.00
2022-09-05T18:50:25.361Z,100.00
2022-09-05T18:52:34.089Z,100.00
2022-09-05T18:56:10.914Z,100.00
2022-09-05T18:58:10.871Z,100.00
2022-09-05T19:00:46.654Z,100.00
2022-09-05T19:03:28.815Z,100.00
2022-09-05T19:06:34.644Z,100.00
2022-09-05T19:09:09.808Z,100.00
2022-09-05T19:12:33.276Z,100.00
2022-09-05T19:15:08.312Z,100.00
2022-09-05T19:17:47.530Z,100.00
2022-09-05T19:20:56.407Z,100.00
2022-09-05T19:23:32.183Z,100.00
2022-09-05T19:26:09.659Z,100.00
2022-09-05T19:36:52.816Z,100.00
2022-09-05T19:36:53.005Z,100.00
2022-09-05T19:37:23.845Z,100.00
2022-09-05T19:37:41.248Z,100.00
2022-09-05T19:47:01.844Z,100.00
2022-09-05T19:47:35.921Z,100.00
2022-09-05T19:47:51.473Z,100.00
2022-09-05T19:49:12.929Z,100.00
2022-09-05T19:51:41.519Z,100.00
2022-09-05T19:54:25.952Z,100.00
2022-09-05T19:57:03.218Z,100.00
2022-09-05T19:59:34.342Z,100.00
2022-09-05T20:02:04.671Z,100.00
2022-09-05T20:04:38.769Z,100.00
2022-09-05T20:07:19.187Z,100.00
2022-09-05T20:09:49.644Z,100.00
2022-09-05T20:12:29.757Z,100.00
2022-09-05T20:14:57.929Z,100.00
2022-09-05T20:17:32.172Z,100.00
2022-09-05T20:20:08.652Z,100.00
2022-09-05T20:22:49.782Z,100.00
2022-09-05T20:25:40.691Z,100.00
2022-09-05T20:28:11.519Z,100.00
2022-09-05T20:30:45.705Z,100.00
2022-09-05T20:33:28.535Z,100.00
2022-09-05T20:43:08.992Z,100.00
2022-09-05T20:43:23.647Z,100.00
2022-09-05T20:43:36.452Z,100.00
2022-09-05T20:44:50.647Z,100.00
2022-09-05T20:50:58.281Z,100.00
2022-09-05T20:54:23.018Z,100.00
2022-09-05T20:54:25.929Z,100.00
2022-09-05T20:56:30.843Z,100.00
2022-09-05T20:58:59.199Z,100.00
2022-09-05T21:01:27.865Z,100.00
2022-09-05T21:04:05.533Z,100.00
2022-09-05T21:06:41.311Z,100.00
2022-09-05T21:09:13.131Z,100.00
2022-09-05T21:11:41.217Z,100.00
2022-09-05T21:14:08.866Z,100.00
2022-09-05T21:16:49.220Z,100.00
2022-09-05T21:19:32.490Z,100.00
2022-09-05T21:22:09.689Z,100.00
2022-09-05T21:24:36.835Z,100.00
2022-09-05T21:27:25.127Z,100.00
2022-09-05T21:29:58.657Z,100.00
2022-09-05T21:32:38.019Z,100.00
2022-09-05T21:35:34.414Z,100.00
2022-09-05T21:37:58.657Z,100.00
2022-09-05T21:40:25.789Z,100.00
2022-09-05T21:47:35.833Z,100.00
2022-09-05T21:47:48.364Z,100.00
2022-09-05T21:48:28.981Z,100.00
2022-09-05T21:51:02.566Z,100.00
2022-09-05T21:56:45.293Z,100.00
2022-09-05T21:59:26.037Z,100.00
2022-09-05T21:59:46.083Z,100.00
2022-09-05T22:02:16.538Z,100.00
2022-09-05T22:04:44.220Z,100.00
2022-09-05T22:07:21.625Z,100.00
2022-09-05T22:10:03.382Z,100.00
2022-09-05T22:12:35.837Z,100.00
2022-09-05T22:15:28.816Z,100.00
2022-09-05T22:18:17.299Z,100.00
2022-09-05T22:21:01.382Z,100.00
2022-09-05T22:23:44.297Z,100.00
2022-09-05T22:26:13.354Z,100.00
2022-09-05T22:28:48.774Z,100.00
2022-09-05T22:31:19.912Z,100.00
2022-09-05T22:33:50.955Z,100.00
2022-09-05T22:36:18.550Z,100.00
2022-09-05T22:38:47.573Z,100.00
2022-09-05T22:41:14.961Z,100.00
2022-09-05T22:43:42.112Z,100.00
2022-09-05T22:46:11.140Z,100.00
2022-09-05T22:48:38.460Z,100.00
2022-09-05T22:51:06.377Z,100.00
2022-09-05T22:53:33.578Z,100.00
2022-09-05T22:56:06.457Z,100.00
2022-09-05T22:58:44.881Z,100.00
2022-09-05T23:01:12.695Z,100.00
2022-09-05T23:03:39.731Z,100.00
2022-09-05T23:06:10.163Z,100.00
2022-09-05T23:08:37.309Z,100.00
2022-09-05T23:11:16.819Z,100.00
2022-09-05T23:13:44.800Z,100.00
2022-09-05T23:16:12.552Z,100.00
2022-09-05T23:18:40.082Z,100.00
2022-09-05T23:21:11.209Z,100.00
2022-09-05T23:23:41.242Z,100.00
2022-09-05T23:26:13.139Z,100.00
2022-09-05T23:28:43.361Z,100.00
2022-09-05T23:31:12.290Z,100.00
2022-09-05T23:33:41.920Z,100.00
2022-09-05T23:36:13.806Z,100.00
2022-09-05T23:38:44.598Z,100.00
2022-09-05T23:41:14.985Z,100.00
2022-09-05T23:43:43.087Z,100.00
2022-09-05T23:46:10.203Z,100.00
2022-09-05T23:48:39.840Z,100.00
2022-09-05T23:51:10.380Z,100.00
2022-09-05T23:53:38.273Z,100.00
2022-09-05T23:56:09.548Z,100.00
2022-09-05T23:58:37.714Z,100.00
